createdAt,value
2016-02-26T00:00:16.794Z,19.93
2016-02-26T00:01:16.906Z,19.9
2016-02-26T00:02:16.066Z,19.95
2016-02-26T00:03:17.474Z,20.03
2016-02-26T00:04:17.008Z,20
2016-02-26T00:05:17.432Z,20.02
2016-02-26T00:06:15.982Z,19.97
2016-02-26T00:07:13.313Z,20.03
2016-02-26T00:08:13.268Z,19.95
2016-02-26T00:09:13.240Z,19.93
2016-02-26T00:10:13.242Z,19.9
2016-02-26T00:11:13.214Z,19.91
2016-02-26T00:12:13.233Z,19.9
2016-02-26T00:13:13.204Z,19.95
2016-02-26T00:14:13.175Z,19.93
2016-02-26T00:15:13.132Z,19.91
2016-02-26T00:16:13.134Z,19.94
2016-02-26T00:17:13.106Z,20
2016-02-26T00:18:13.092Z,19.88
2016-02-26T00:19:13.080Z,19.91
2016-02-26T00:20:13.051Z,19.94
2016-02-26T00:21:13.054Z,19.94
2016-02-26T00:22:13.041Z,19.91
2016-02-26T00:23:13.059Z,19.91
2016-02-26T00:24:12.983Z,19.9
2016-02-26T00:25:12.971Z,19.91
2016-02-26T00:26:12.958Z,19.95
2016-02-26T00:27:12.804Z,19.9
2016-02-26T00:28:12.933Z,19.94
2016-02-26T00:29:12.904Z,19.91
2016-02-26T00:30:12.874Z,19.91
2016-02-26T00:31:12.877Z,19.97
2016-02-26T00:32:12.849Z,19.88
2016-02-26T00:33:12.836Z,19.88
2016-02-26T00:34:12.807Z,19.94
2016-02-26T00:35:12.795Z,19.87
2016-02-26T00:36:12.782Z,19.9
2016-02-26T00:37:12.768Z,19.9
2016-02-26T00:38:12.740Z,19.93
2016-02-26T00:39:12.711Z,19.87
2016-02-26T00:40:12.714Z,19.88
2016-02-26T00:41:12.686Z,19.9
2016-02-26T00:42:12.673Z,19.83
2016-02-26T00:43:12.644Z,19.79
2016-02-26T00:44:12.678Z,19.84
2016-02-26T00:45:12.634Z,19.91
2016-02-26T00:46:12.590Z,19.91
2016-02-26T00:47:12.592Z,19.87
2016-02-26T00:48:12.564Z,19.84
2016-02-26T00:49:12.566Z,19.8
2016-02-26T00:50:12.569Z,19.79
2016-02-26T00:51:12.572Z,19.79
2016-02-26T00:52:12.512Z,19.79
2016-02-26T00:53:12.484Z,19.83
2016-02-26T00:54:12.455Z,19.86
2016-02-26T00:55:12.458Z,19.83
2016-02-26T00:56:12.444Z,19.86
2016-02-26T00:57:12.416Z,19.84
2016-02-26T00:58:12.388Z,19.76
2016-02-26T00:59:12.375Z,19.83
2016-02-26T01:00:12.363Z,19.79
2016-02-26T01:01:12.349Z,19.79
2016-02-26T01:02:12.320Z,19.84
2016-02-26T01:03:12.307Z,19.83
2016-02-26T01:04:12.311Z,19.8
2016-02-26T01:05:12.282Z,19.8
2016-02-26T01:06:12.254Z,19.76
2016-02-26T01:07:12.224Z,19.79
2016-02-26T01:08:12.227Z,19.79
2016-02-26T01:09:12.229Z,19.76
2016-02-26T01:10:12.185Z,19.83
2016-02-26T01:11:12.173Z,19.79
2016-02-26T01:12:12.148Z,19.84
2016-02-26T01:13:12.108Z,19.83
2016-02-26T01:14:12.114Z,19.7
2016-02-26T01:15:12.042Z,19.78
2016-02-26T01:16:12.016Z,19.76
2016-02-26T01:17:11.999Z,19.8
2016-02-26T01:18:11.997Z,19.8
2016-02-26T01:19:11.949Z,19.84
2016-02-26T01:20:11.931Z,19.75
2016-02-26T01:21:11.898Z,19.75
2016-02-26T01:22:11.931Z,19.76
2016-02-26T01:23:11.885Z,19.72
2016-02-26T01:24:11.855Z,19.7
2016-02-26T01:25:11.841Z,19.72
2016-02-26T01:26:11.810Z,19.78
2016-02-26T01:27:11.797Z,19.72
2016-02-26T01:28:11.830Z,19.66
2016-02-26T01:29:11.769Z,19.7
2016-02-26T01:30:11.740Z,19.68
2016-02-26T01:31:11.727Z,19.6
2016-02-26T01:32:11.697Z,19.66
2016-02-26T01:33:11.685Z,19.6
2016-02-26T01:34:11.671Z,19.68
2016-02-26T01:35:11.659Z,19.63
2016-02-26T01:36:11.630Z,19.66
2016-02-26T01:37:11.618Z,19.66
2016-02-26T01:38:11.620Z,19.68
2016-02-26T01:39:11.607Z,19.72
2016-02-26T01:40:11.563Z,19.66
2016-02-26T01:41:11.597Z,19.66
2016-02-26T01:42:11.537Z,19.69
2016-02-26T01:43:11.555Z,19.68
2016-02-26T01:44:11.496Z,19.69
2016-02-26T01:45:11.482Z,19.68
2016-02-26T01:46:11.454Z,19.75
2016-02-26T01:47:11.457Z,19.65
2016-02-26T01:48:11.444Z,19.69
2016-02-26T01:49:11.400Z,19.69
2016-02-26T01:50:11.403Z,19.72
2016-02-26T01:51:11.373Z,19.7
2016-02-26T01:52:11.361Z,19.63
2016-02-26T01:53:11.364Z,19.66
2016-02-26T01:54:11.335Z,19.78
2016-02-26T01:55:11.306Z,19.68
2016-02-26T01:56:11.294Z,19.7
2016-02-26T01:57:11.265Z,19.68
2016-02-26T01:58:11.253Z,19.61
2016-02-26T01:59:11.239Z,19.68
2016-02-26T02:00:11.226Z,19.75
2016-02-26T02:01:11.197Z,19.69
2016-02-26T02:02:11.185Z,19.55
2016-02-26T02:03:11.156Z,19.66
2016-02-26T02:04:11.143Z,19.58
2016-02-26T02:05:11.114Z,19.51
2016-02-26T02:06:11.102Z,19.54
2016-02-26T02:07:11.105Z,19.68
2016-02-26T02:08:11.076Z,19.57
2016-02-26T02:09:11.063Z,19.66
2016-02-26T02:10:11.034Z,19.55
2016-02-26T02:11:11.022Z,19.61
2016-02-26T02:12:11.008Z,19.54
2016-02-26T02:13:10.980Z,19.57
2016-02-26T02:14:10.967Z,19.54
2016-02-26T02:15:10.954Z,19.57
2016-02-26T02:16:10.941Z,19.6
2016-02-26T02:17:10.928Z,19.5
2016-02-26T02:18:10.899Z,19.6
2016-02-26T02:19:10.887Z,19.55
2016-02-26T02:20:10.858Z,19.57
2016-02-26T02:21:10.861Z,19.53
2016-02-26T02:22:10.832Z,19.7
2016-02-26T02:23:10.819Z,19.66
2016-02-26T02:24:10.790Z,19.61
2016-02-26T02:25:10.778Z,19.72
2016-02-26T02:26:10.750Z,19.63
2016-02-26T02:27:10.736Z,19.66
2016-02-26T02:28:10.739Z,19.63
2016-02-26T02:29:10.711Z,19.7
2016-02-26T02:30:10.682Z,19.72
2016-02-26T02:31:10.669Z,19.58
2016-02-26T02:32:10.656Z,19.7
2016-02-26T02:33:10.643Z,19.68
2016-02-26T02:34:10.631Z,19.68
2016-02-26T02:35:10.617Z,19.6
2016-02-26T02:36:10.589Z,19.57
2016-02-26T02:37:10.591Z,19.57
2016-02-26T02:38:10.547Z,19.6
2016-02-26T02:39:10.534Z,19.6
2016-02-26T02:40:10.505Z,19.57
2016-02-26T02:41:10.540Z,19.57
2016-02-26T02:42:10.480Z,19.57
2016-02-26T02:43:10.452Z,19.6
2016-02-26T02:44:10.438Z,19.68
2016-02-26T02:45:10.425Z,19.57
2016-02-26T02:46:10.396Z,19.58
2016-02-26T02:47:10.400Z,19.57
2016-02-26T02:48:10.402Z,19.57
2016-02-26T02:49:10.358Z,19.55
2016-02-26T02:50:10.345Z,19.58
2016-02-26T02:51:10.348Z,19.54
2016-02-26T02:52:10.287Z,19.6
2016-02-26T02:53:10.290Z,19.61
2016-02-26T02:54:10.309Z,19.57
2016-02-26T02:55:10.249Z,19.58
2016-02-26T02:56:10.252Z,19.53
2016-02-26T02:57:10.223Z,19.57
2016-02-26T02:58:10.194Z,19.54
2016-02-26T02:59:10.181Z,19.63
2016-02-26T03:00:10.170Z,19.57
2016-02-26T03:01:10.140Z,19.51
2016-02-26T03:02:10.128Z,19.57
2016-02-26T03:03:10.099Z,19.57
2016-02-26T03:04:10.102Z,19.65
2016-02-26T03:05:09.964Z,19.58
2016-02-26T03:06:10.221Z,19.55
2016-02-26T03:07:10.036Z,19.57
2016-02-26T03:08:10.024Z,19.55
2016-02-26T03:09:10.058Z,19.66
2016-02-26T03:10:09.983Z,19.57
2016-02-26T03:11:09.969Z,19.55
2016-02-26T03:12:09.942Z,19.55
2016-02-26T03:13:09.928Z,19.55
2016-02-26T03:14:09.916Z,19.6
2016-02-26T03:15:09.903Z,19.54
2016-02-26T03:16:09.889Z,19.54
2016-02-26T03:17:09.861Z,19.55
2016-02-26T03:18:09.848Z,19.63
2016-02-26T03:19:09.835Z,19.57
2016-02-26T03:20:09.822Z,19.69
2016-02-26T03:21:09.794Z,19.55
2016-02-26T03:22:09.765Z,19.65
2016-02-26T03:23:09.768Z,19.6
2016-02-26T03:24:09.739Z,19.57
2016-02-26T03:25:09.727Z,19.57
2016-02-26T03:26:09.713Z,19.58
2016-02-26T03:27:09.685Z,19.53
2016-02-26T03:28:09.656Z,19.61
2016-02-26T03:29:09.643Z,19.57
2016-02-26T03:30:09.631Z,19.54
2016-02-26T03:31:09.618Z,19.58
2016-02-26T03:32:09.604Z,19.58
2016-02-26T03:33:09.576Z,19.55
2016-02-26T03:34:09.562Z,19.58
2016-02-26T03:35:09.534Z,19.57
2016-02-26T03:36:09.537Z,19.57
2016-02-26T03:37:09.492Z,19.57
2016-02-26T03:38:09.496Z,19.6
2016-02-26T03:39:09.467Z,19.55
2016-02-26T03:40:09.454Z,19.58
2016-02-26T03:41:09.441Z,19.54
2016-02-26T03:42:09.428Z,19.57
2016-02-26T03:43:09.416Z,19.58
2016-02-26T03:44:09.403Z,19.55
2016-02-26T03:45:09.389Z,19.57
2016-02-26T03:46:09.392Z,19.58
2016-02-26T03:47:09.347Z,19.54
2016-02-26T03:48:09.319Z,19.55
2016-02-26T03:49:09.307Z,19.57
2016-02-26T03:50:09.277Z,19.58
2016-02-26T03:51:09.250Z,19.58
2016-02-26T03:52:09.268Z,19.65
2016-02-26T03:53:09.223Z,19.63
2016-02-26T03:54:09.210Z,19.57
2016-02-26T03:55:09.182Z,19.55
2016-02-26T03:56:09.185Z,19.54
2016-02-26T03:57:09.141Z,19.55
2016-02-26T03:58:09.174Z,19.6
2016-02-26T03:59:09.115Z,19.53
2016-02-26T04:00:09.117Z,19.55
2016-02-26T04:01:09.073Z,19.55
2016-02-26T04:02:09.060Z,19.68
2016-02-26T04:03:09.063Z,19.54
2016-02-26T04:04:09.097Z,19.55
2016-02-26T04:05:09.006Z,19.58
2016-02-26T04:06:09.008Z,19.6
2016-02-26T04:07:08.980Z,19.53
2016-02-26T04:08:08.951Z,19.61
2016-02-26T04:09:08.953Z,19.6
2016-02-26T04:10:08.925Z,19.55
2016-02-26T04:11:08.928Z,19.47
2016-02-26T04:12:08.883Z,19.46
2016-02-26T04:13:08.917Z,19.46
2016-02-26T04:14:08.859Z,19.53
2016-02-26T04:15:08.830Z,19.43
2016-02-26T04:16:08.817Z,19.4
2016-02-26T04:17:08.819Z,19.6
2016-02-26T04:18:08.791Z,19.51
2016-02-26T04:19:08.793Z,19.55
2016-02-26T04:20:08.749Z,19.54
2016-02-26T04:21:08.736Z,19.51
2016-02-26T04:22:08.708Z,19.55
2016-02-26T04:23:08.694Z,19.51
2016-02-26T04:24:08.682Z,19.53
2016-02-26T04:25:08.653Z,19.47
2016-02-26T04:26:08.656Z,19.47
2016-02-26T04:27:08.660Z,19.51
2016-02-26T04:28:08.630Z,19.48
2016-02-26T04:29:08.586Z,19.48
2016-02-26T04:30:08.588Z,19.48
2016-02-26T04:31:08.545Z,19.51
2016-02-26T04:32:08.547Z,19.5
2016-02-26T04:33:08.519Z,19.55
2016-02-26T04:34:08.506Z,19.47
2016-02-26T04:35:08.477Z,19.57
2016-02-26T04:36:08.464Z,19.54
2016-02-26T04:37:08.467Z,19.5
2016-02-26T04:38:08.438Z,19.48
2016-02-26T04:39:08.253Z,19.47
2016-02-26T04:40:08.382Z,19.48
2016-02-26T04:41:08.384Z,19.57
2016-02-26T04:42:08.355Z,19.47
2016-02-26T04:43:08.358Z,19.48
2016-02-26T04:44:08.314Z,19.55
2016-02-26T04:45:08.301Z,19.51
2016-02-26T04:46:08.304Z,19.48
2016-02-26T04:47:08.275Z,19.51
2016-02-26T04:48:08.262Z,19.47
2016-02-26T04:49:08.249Z,19.4
2016-02-26T04:50:08.236Z,19.55
2016-02-26T04:51:08.207Z,19.53
2016-02-26T04:52:08.179Z,19.51
2016-02-26T04:53:08.167Z,19.4
2016-02-26T04:54:08.138Z,19.53
2016-02-26T04:55:08.140Z,19.57
2016-02-26T04:56:08.096Z,19.53
2016-02-26T04:57:08.114Z,19.53
2016-02-26T04:58:08.071Z,19.5
2016-02-26T04:59:08.058Z,19.48
2016-02-26T05:00:08.044Z,19.48
2016-02-26T05:01:08.032Z,19.47
2016-02-26T05:02:08.018Z,19.5
2016-02-26T05:03:07.990Z,19.55
2016-02-26T05:04:07.992Z,19.51
2016-02-26T05:05:07.954Z,19.43
2016-02-26T05:06:07.941Z,19.48
2016-02-26T05:07:07.929Z,19.5
2016-02-26T05:08:07.899Z,19.48
2016-02-26T05:09:07.887Z,19.46
2016-02-26T05:10:07.874Z,19.46
2016-02-26T05:11:07.862Z,19.53
2016-02-26T05:12:07.832Z,19.55
2016-02-26T05:13:07.804Z,19.51
2016-02-26T05:14:07.791Z,19.51
2016-02-26T05:15:07.778Z,19.48
2016-02-26T05:16:07.765Z,19.51
2016-02-26T05:17:07.736Z,19.42
2016-02-26T05:18:07.724Z,19.51
2016-02-26T05:19:07.711Z,19.48
2016-02-26T05:20:07.698Z,19.47
2016-02-26T05:21:07.684Z,19.48
2016-02-26T05:22:07.656Z,19.53
2016-02-26T05:23:07.628Z,19.47
2016-02-26T05:24:07.614Z,19.42
2016-02-26T05:25:07.602Z,19.53
2016-02-26T05:26:07.589Z,19.5
2016-02-26T05:27:07.561Z,19.42
2016-02-26T05:28:07.563Z,19.48
2016-02-26T05:29:07.535Z,19.46
2016-02-26T05:30:07.505Z,19.43
2016-02-26T05:31:07.494Z,19.42
2016-02-26T05:32:07.464Z,19.39
2016-02-26T05:33:07.466Z,19.4
2016-02-26T05:34:07.438Z,19.38
2016-02-26T05:35:07.426Z,19.4
2016-02-26T05:36:07.413Z,19.47
2016-02-26T05:37:07.385Z,19.42
2016-02-26T05:38:07.371Z,19.43
2016-02-26T05:39:07.343Z,19.51
2016-02-26T05:40:07.345Z,19.48
2016-02-26T05:41:07.317Z,19.48
2016-02-26T05:42:07.303Z,19.39
2016-02-26T05:43:07.290Z,19.53
2016-02-26T05:44:07.278Z,19.42
2016-02-26T05:45:07.249Z,19.47
2016-02-26T05:46:07.221Z,19.4
2016-02-26T05:47:07.223Z,19.38
2016-02-26T05:48:07.179Z,19.43
2016-02-26T05:49:07.182Z,19.4
2016-02-26T05:50:07.170Z,19.38
2016-02-26T05:51:07.140Z,19.47
2016-02-26T05:52:07.112Z,19.36
2016-02-26T05:53:07.100Z,19.36
2016-02-26T05:54:07.087Z,19.38
2016-02-26T05:55:07.089Z,19.54
2016-02-26T05:56:07.044Z,19.47
2016-02-26T05:57:07.032Z,19.4
2016-02-26T05:58:07.019Z,19.5
2016-02-26T05:59:06.990Z,19.57
2016-02-26T06:00:06.977Z,19.43
2016-02-26T06:01:06.964Z,19.5
2016-02-26T06:02:06.952Z,19.51
2016-02-26T06:03:06.923Z,19.51
2016-02-26T06:04:06.910Z,19.48
2016-02-26T06:05:06.913Z,19.5
2016-02-26T06:06:06.868Z,19.48
2016-02-26T06:07:06.871Z,19.51
2016-02-26T06:08:06.843Z,19.51
2016-02-26T06:09:06.830Z,19.51
2016-02-26T06:10:06.816Z,19.42
2016-02-26T06:11:06.835Z,19.5
2016-02-26T06:12:06.775Z,19.53
2016-02-26T06:13:06.746Z,19.47
2016-02-26T06:14:06.749Z,19.46
2016-02-26T06:15:06.705Z,19.47
2016-02-26T06:16:06.693Z,19.38
2016-02-26T06:17:06.679Z,19.53
2016-02-26T06:18:06.667Z,19.5
2016-02-26T06:19:06.684Z,19.51
2016-02-26T06:20:06.625Z,19.51
2016-02-26T06:21:06.611Z,19.51
2016-02-26T06:22:06.599Z,19.4
2016-02-26T06:23:06.586Z,19.42
2016-02-26T06:24:06.542Z,19.39
2016-02-26T06:25:06.544Z,19.47
2016-02-26T06:26:06.531Z,19.48
2016-02-26T06:27:06.519Z,19.39
2016-02-26T06:28:06.489Z,19.47
2016-02-26T06:29:06.478Z,19.54
2016-02-26T06:30:06.511Z,19.48
2016-02-26T06:31:06.467Z,19.51
2016-02-26T06:32:06.422Z,19.39
2016-02-26T06:33:06.410Z,19.48
2016-02-26T06:34:06.380Z,19.42
2016-02-26T06:35:06.384Z,19.5
2016-02-26T06:36:06.340Z,19.47
2016-02-26T06:37:06.343Z,19.47
2016-02-26T06:38:06.313Z,19.48
2016-02-26T06:39:06.301Z,19.4
2016-02-26T06:40:06.115Z,19.48
2016-02-26T06:41:06.244Z,19.5
2016-02-26T06:42:06.247Z,19.48
2016-02-26T06:43:06.214Z,19.42
2016-02-26T06:44:06.200Z,19.48
2016-02-26T06:45:06.188Z,19.51
2016-02-26T06:46:06.176Z,19.39
2016-02-26T06:47:06.147Z,19.53
2016-02-26T06:48:06.133Z,19.5
2016-02-26T06:49:06.136Z,19.54
2016-02-26T06:50:06.108Z,19.4
2016-02-26T06:51:06.080Z,19.47
2016-02-26T06:52:06.066Z,19.55
2016-02-26T06:53:06.053Z,19.51
2016-02-26T06:54:06.041Z,19.43
2016-02-26T06:55:05.997Z,19.5
2016-02-26T06:56:05.999Z,19.47
2016-02-26T06:57:05.970Z,19.48
2016-02-26T06:58:05.957Z,19.51
2016-02-26T06:59:05.944Z,19.48
2016-02-26T07:00:05.932Z,19.5
2016-02-26T07:01:05.904Z,19.55
2016-02-26T07:02:05.890Z,19.53
2016-02-26T07:03:05.877Z,19.54
2016-02-26T07:04:05.848Z,19.53
2016-02-26T07:05:05.851Z,19.57
2016-02-26T07:06:05.823Z,19.53
2016-02-26T07:07:05.810Z,19.57
2016-02-26T07:08:05.782Z,19.54
2016-02-26T07:09:05.768Z,19.47
2016-02-26T07:10:05.739Z,19.5
2016-02-26T07:11:05.726Z,19.48
2016-02-26T07:12:05.715Z,19.5
2016-02-26T07:13:05.701Z,19.55
2016-02-26T07:14:05.689Z,19.51
2016-02-26T07:15:05.706Z,19.53
2016-02-26T07:16:05.631Z,19.5
2016-02-26T07:17:05.617Z,19.58
2016-02-26T07:18:05.605Z,19.48
2016-02-26T07:19:05.591Z,19.51
2016-02-26T07:20:05.564Z,19.48
2016-02-26T07:21:05.551Z,19.53
2016-02-26T07:22:05.538Z,19.53
2016-02-26T07:23:05.525Z,19.5
2016-02-26T07:24:05.496Z,19.5
2016-02-26T07:25:05.484Z,19.46
2016-02-26T07:26:05.455Z,19.51
2016-02-26T07:27:05.442Z,19.53
2016-02-26T07:28:05.429Z,19.48
2016-02-26T07:29:05.400Z,19.53
2016-02-26T07:30:05.387Z,19.54
2016-02-26T07:31:05.374Z,19.5
2016-02-26T07:32:05.345Z,19.5
2016-02-26T07:33:05.333Z,19.5
2016-02-26T07:34:05.321Z,19.51
2016-02-26T07:35:05.291Z,19.53
2016-02-26T07:36:05.279Z,19.55
2016-02-26T07:37:05.265Z,19.51
2016-02-26T07:38:05.253Z,19.48
2016-02-26T07:39:05.224Z,19.55
2016-02-26T07:40:05.212Z,19.53
2016-02-26T07:41:05.198Z,19.61
2016-02-26T07:42:05.185Z,19.5
2016-02-26T07:43:05.172Z,19.48
2016-02-26T07:44:05.144Z,19.53
2016-02-26T07:45:05.130Z,19.48
2016-02-26T07:46:05.103Z,19.54
2016-02-26T07:47:04.934Z,19.53
2016-02-26T07:48:05.061Z,19.46
2016-02-26T07:49:05.064Z,19.48
2016-02-26T07:50:05.035Z,19.55
2016-02-26T07:51:05.006Z,19.48
2016-02-26T07:52:05.008Z,19.47
2016-02-26T07:53:04.981Z,19.55
2016-02-26T07:54:04.967Z,19.47
2016-02-26T07:55:04.955Z,19.48
2016-02-26T07:56:04.926Z,19.48
2016-02-26T07:57:04.913Z,19.53
2016-02-26T07:58:04.884Z,19.48
2016-02-26T07:59:04.872Z,19.47
2016-02-26T08:00:04.859Z,19.5
2016-02-26T08:01:04.846Z,19.39
2016-02-26T08:02:04.818Z,19.4
2016-02-26T08:03:04.804Z,19.46
2016-02-26T08:04:04.791Z,19.5
2016-02-26T08:05:04.778Z,19.51
2016-02-26T08:06:04.781Z,19.55
2016-02-26T08:07:04.737Z,19.54
2016-02-26T08:08:04.724Z,19.57
2016-02-26T08:09:04.696Z,19.51
2016-02-26T08:10:04.682Z,19.58
2016-02-26T08:11:04.654Z,19.54
2016-02-26T08:12:04.673Z,19.51
2016-02-26T08:13:04.628Z,19.57
2016-02-26T08:14:04.646Z,19.51
2016-02-26T08:15:04.587Z,19.58
2016-02-26T08:16:04.573Z,19.53
2016-02-26T08:17:04.561Z,19.55
2016-02-26T08:18:04.548Z,19.55
2016-02-26T08:19:04.519Z,19.58
2016-02-26T08:20:04.506Z,19.55
2016-02-26T08:21:04.478Z,19.54
2016-02-26T08:22:04.464Z,19.57
2016-02-26T08:23:04.452Z,19.58
2016-02-26T08:24:04.439Z,19.61
2016-02-26T08:25:04.411Z,19.66
2016-02-26T08:26:04.397Z,19.55
2016-02-26T08:27:04.369Z,19.57
2016-02-26T08:28:04.372Z,19.55
2016-02-26T08:29:04.390Z,19.57
2016-02-26T08:30:04.361Z,19.5
2016-02-26T08:31:04.333Z,19.61
2016-02-26T08:32:04.304Z,19.65
2016-02-26T08:33:04.276Z,19.47
2016-02-26T08:34:04.263Z,19.57
2016-02-26T08:35:04.234Z,19.46
2016-02-26T08:36:04.221Z,19.53
2016-02-26T08:37:04.193Z,19.43
2016-02-26T08:38:04.179Z,19.65
2016-02-26T08:39:04.182Z,19.55
2016-02-26T08:40:04.153Z,19.53
2016-02-26T08:41:04.125Z,19.54
2016-02-26T08:42:04.112Z,19.57
2016-02-26T08:43:04.099Z,19.61
2016-02-26T08:44:04.133Z,19.57
2016-02-26T08:45:04.059Z,19.51
2016-02-26T08:46:04.045Z,19.57
2016-02-26T08:47:04.032Z,19.6
2016-02-26T08:48:04.003Z,19.58
2016-02-26T08:49:03.990Z,19.7
2016-02-26T08:50:03.978Z,19.66
2016-02-26T08:51:03.949Z,19.76
2016-02-26T08:52:03.936Z,19.73
2016-02-26T08:53:03.908Z,19.65
2016-02-26T08:54:03.894Z,19.6
2016-02-26T08:55:03.881Z,19.57
2016-02-26T08:56:03.884Z,19.46
2016-02-26T08:57:03.841Z,19.38
2016-02-26T08:58:03.843Z,19.38
2016-02-26T08:59:03.830Z,19.39
2016-02-26T09:00:03.802Z,19.31
2016-02-26T09:01:03.772Z,19.13
2016-02-26T09:02:03.760Z,19.25
2016-02-26T09:03:03.747Z,19.14
2016-02-26T09:04:03.735Z,19.18
2016-02-26T09:05:03.549Z,19.1
2016-02-26T09:06:03.693Z,18.99
2016-02-26T09:07:03.680Z,18.98
2016-02-26T09:08:03.651Z,19.01
2016-02-26T09:09:03.638Z,18.97
2016-02-26T09:10:03.626Z,18.97
2016-02-26T09:11:03.612Z,18.9
2016-02-26T09:12:03.584Z,18.98
2016-02-26T09:13:03.571Z,18.91
2016-02-26T09:14:03.542Z,18.83
2016-02-26T09:15:03.529Z,18.59
2016-02-26T09:16:03.501Z,18.34
2016-02-26T09:17:03.379Z,17.78
2016-02-26T09:18:03.475Z,17.5
2016-02-26T09:19:03.493Z,17.18
2016-02-26T09:20:03.449Z,16.98
2016-02-26T09:21:03.436Z,17.28
2016-02-26T09:22:03.408Z,17.64
2016-02-26T09:23:03.378Z,17.89
2016-02-26T09:24:03.381Z,18.12
2016-02-26T09:25:03.197Z,18.34
2016-02-26T09:26:03.324Z,18.49
2016-02-26T09:27:03.327Z,18.64
2016-02-26T09:28:03.299Z,18.74
2016-02-26T09:29:03.286Z,18.67
2016-02-26T09:30:03.257Z,18.79
2016-02-26T09:31:03.244Z,18.86
2016-02-26T09:32:03.247Z,18.86
2016-02-26T09:33:03.218Z,18.91
2016-02-26T09:34:03.283Z,18.92
2016-02-26T09:35:03.177Z,18.94
2016-02-26T09:36:03.163Z,18.92
2016-02-26T09:37:03.135Z,18.91
2016-02-26T09:38:03.121Z,18.99
2016-02-26T09:39:03.110Z,18.99
2016-02-26T09:40:03.096Z,19.08
2016-02-26T09:41:03.068Z,19.01
2016-02-26T09:42:03.055Z,19.1
2016-02-26T09:43:03.042Z,19.02
2016-02-26T09:44:03.013Z,19.02
2016-02-26T09:45:03.000Z,19.06
2016-02-26T09:46:02.973Z,19.02
2016-02-26T09:47:02.990Z,19.02
2016-02-26T09:48:02.945Z,19.08
2016-02-26T09:49:02.917Z,19.05
2016-02-26T09:50:02.904Z,19.08
2016-02-26T09:51:02.892Z,19.05
2016-02-26T09:52:02.864Z,19.06
2016-02-26T09:53:02.851Z,19.13
2016-02-26T09:54:02.837Z,19.06
2016-02-26T09:55:02.809Z,19.08
2016-02-26T09:56:02.812Z,19.08
2016-02-26T09:57:02.798Z,19.1
2016-02-26T09:58:02.770Z,19.06
2016-02-26T09:59:02.741Z,19.11
2016-02-26T10:00:02.728Z,19.13
2016-02-26T10:01:02.716Z,19.14
2016-02-26T10:02:02.702Z,19.14
2016-02-26T10:03:02.674Z,19.15
2016-02-26T10:04:02.661Z,19.15
2016-02-26T10:05:02.648Z,19.11
2016-02-26T10:06:02.619Z,19.13
2016-02-26T10:07:02.607Z,19.13
2016-02-26T10:08:02.609Z,19.18
2016-02-26T10:09:02.580Z,19.14
2016-02-26T10:10:02.582Z,19.24
2016-02-26T10:11:02.524Z,19.17
2016-02-26T10:12:02.510Z,19.18
2016-02-26T10:13:02.482Z,19.15
2016-02-26T10:14:02.501Z,19.18
2016-02-26T10:15:02.457Z,19.18
2016-02-26T10:16:02.287Z,19.2
2016-02-26T10:17:02.428Z,19.2
2016-02-26T10:18:02.403Z,19.23
2016-02-26T10:19:02.362Z,19.23
2016-02-26T10:20:02.322Z,19.2
2016-02-26T10:21:02.300Z,19.28
2016-02-26T10:22:02.275Z,19.25
2016-02-26T10:23:02.259Z,19.17
2016-02-26T10:24:02.241Z,19.29
2016-02-26T10:25:02.207Z,19.32
2016-02-26T10:26:02.190Z,19.29
2016-02-26T10:27:02.173Z,19.31
2016-02-26T10:28:02.143Z,19.28
2016-02-26T10:29:02.160Z,19.28
2016-02-26T10:30:02.098Z,19.25
2016-02-26T10:31:02.084Z,19.31
2016-02-26T10:32:02.086Z,19.31
2016-02-26T10:33:02.056Z,19.2
2016-02-26T10:34:02.044Z,19.31
2016-02-26T10:35:02.014Z,19.28
2016-02-26T10:36:02.001Z,19.29
2016-02-26T10:37:01.987Z,19.32
2016-02-26T10:38:01.958Z,19.2
2016-02-26T10:39:01.944Z,19.18
2016-02-26T10:40:01.932Z,19.32
2016-02-26T10:41:01.918Z,19.29
2016-02-26T10:42:01.734Z,19.24
2016-02-26T10:43:02.471Z,19.28
2016-02-26T10:44:01.848Z,19.28
2016-02-26T10:45:01.835Z,19.25
2016-02-26T10:46:01.823Z,19.28
2016-02-26T10:47:01.794Z,19.31
2016-02-26T10:48:01.781Z,19.24
2016-02-26T10:49:01.768Z,19.29
2016-02-26T10:50:01.770Z,19.29
2016-02-26T10:51:01.743Z,19.17
2016-02-26T10:52:01.714Z,19.29
2016-02-26T10:53:01.701Z,19.31
2016-02-26T10:54:01.688Z,19.33
2016-02-26T10:55:01.675Z,19.21
2016-02-26T10:56:01.646Z,19.25
2016-02-26T10:57:01.617Z,19.29
2016-02-26T10:58:01.620Z,19.29
2016-02-26T10:59:01.639Z,19.29
2016-02-26T11:00:01.563Z,19.25
2016-02-26T11:01:01.550Z,19.29
2016-02-26T11:02:01.553Z,19.29
2016-02-26T11:03:01.508Z,19.21
2016-02-26T11:04:01.527Z,19.29
2016-02-26T11:05:01.499Z,19.2
2016-02-26T11:06:01.470Z,19.29
2016-02-26T11:07:01.457Z,19.17
2016-02-26T11:08:01.428Z,19.32
2016-02-26T11:09:01.432Z,19.31
2016-02-26T11:10:01.403Z,19.28
2016-02-26T11:11:01.390Z,19.31
2016-02-26T11:12:01.361Z,19.29
2016-02-26T11:13:01.349Z,19.31
2016-02-26T11:14:01.351Z,19.35
2016-02-26T11:15:01.338Z,19.29
2016-02-26T11:16:01.309Z,19.33
2016-02-26T11:17:01.281Z,19.28
2016-02-26T11:18:01.253Z,19.33
2016-02-26T11:19:01.239Z,19.29
2016-02-26T11:20:01.226Z,19.31
2016-02-26T11:21:01.214Z,19.29
2016-02-26T11:22:01.200Z,19.24
2016-02-26T11:23:01.172Z,19.35
2016-02-26T11:24:01.143Z,19.21
2016-02-26T11:25:01.130Z,19.28
2016-02-26T11:26:01.117Z,19.23
2016-02-26T11:27:01.105Z,19.24
2016-02-26T11:28:01.091Z,19.24
2016-02-26T11:29:01.064Z,19.21
2016-02-26T11:30:01.050Z,19.25
2016-02-26T11:31:01.038Z,19.25
2016-02-26T11:32:01.040Z,19.25
2016-02-26T11:33:01.011Z,19.17
2016-02-26T11:34:00.983Z,19.15
2016-02-26T11:35:00.954Z,19.25
2016-02-26T11:36:00.957Z,19.28
2016-02-26T11:37:00.929Z,19.31
2016-02-26T11:38:00.916Z,19.2
2016-02-26T11:39:00.888Z,19.21
2016-02-26T11:40:00.874Z,19.29
2016-02-26T11:41:00.876Z,19.23
2016-02-26T11:42:00.833Z,19.29
2016-02-26T11:43:00.820Z,19.28
2016-02-26T11:44:00.823Z,19.18
2016-02-26T11:45:00.809Z,19.31
2016-02-26T11:46:00.781Z,19.33
2016-02-26T11:47:00.768Z,19.24
2016-02-26T11:48:00.724Z,19.28
2016-02-26T11:49:00.711Z,19.24
2016-02-26T11:50:00.713Z,19.31
2016-02-26T11:51:00.685Z,19.32
2016-02-26T11:52:00.656Z,19.32
2016-02-26T11:53:00.643Z,19.33
2016-02-26T11:54:00.631Z,19.36
2016-02-26T11:55:00.618Z,19.33
2016-02-26T11:56:00.589Z,19.25
2016-02-26T11:57:00.576Z,19.35
2016-02-26T11:58:00.563Z,19.31
2016-02-26T11:59:00.550Z,19.25
2016-02-26T11:59:59.803Z,19.36
2016-02-26T12:01:00.508Z,19.2
2016-02-26T12:02:00.496Z,19.28
2016-02-26T12:03:00.467Z,19.24
2016-02-26T12:04:00.454Z,19.28
2016-02-26T12:05:00.457Z,19.31
2016-02-26T12:06:00.428Z,19.17
2016-02-26T12:07:00.416Z,19.15
2016-02-26T12:08:00.387Z,19.35
2016-02-26T12:09:00.374Z,19.31
2016-02-26T12:10:00.360Z,19.32
2016-02-26T12:11:00.332Z,19.29
2016-02-26T12:12:00.319Z,19.24
2016-02-26T12:13:00.134Z,19.35
2016-02-26T12:14:00.278Z,19.31
2016-02-26T12:15:00.265Z,19.29
2016-02-26T12:16:00.237Z,19.25
2016-02-26T12:17:00.239Z,19.28
2016-02-26T12:18:00.226Z,19.21
2016-02-26T12:19:00.198Z,19.29
2016-02-26T12:20:00.184Z,19.29
2016-02-26T12:21:00.156Z,19.28
2016-02-26T12:22:00.143Z,19.33
2016-02-26T12:23:00.114Z,19.25
2016-02-26T12:24:00.101Z,19.31
2016-02-26T12:25:00.089Z,19.29
2016-02-26T12:26:00.076Z,19.31
2016-02-26T12:27:00.063Z,19.28
2016-02-26T12:28:00.034Z,19.32
2016-02-26T12:29:00.022Z,19.35
2016-02-26T12:30:00.008Z,19.32
2016-02-26T12:30:59.995Z,19.33
2016-02-26T12:31:59.967Z,19.28
2016-02-26T12:32:59.939Z,19.25
2016-02-26T12:33:59.941Z,19.21
2016-02-26T12:34:59.913Z,19.28
2016-02-26T12:35:59.899Z,19.36
2016-02-26T12:36:59.605Z,19.35
2016-02-26T12:37:59.874Z,19.29
2016-02-26T12:38:59.846Z,19.25
2016-02-26T12:39:59.832Z,19.35
2016-02-26T12:40:59.819Z,19.32
2016-02-26T12:41:59.791Z,19.32
2016-02-26T12:42:59.778Z,19.31
2016-02-26T12:43:59.609Z,19.31
2016-02-26T12:44:59.768Z,19.33
2016-02-26T12:45:59.707Z,19.31
2016-02-26T12:46:59.742Z,19.31
2016-02-26T12:47:59.682Z,19.32
2016-02-26T12:48:59.684Z,19.32
2016-02-26T12:49:59.656Z,19.29
2016-02-26T12:50:59.643Z,19.25
2016-02-26T12:52:00.240Z,19.25
2016-02-26T12:52:59.617Z,19.24
2016-02-26T12:53:59.589Z,19.31
2016-02-26T12:54:59.576Z,19.33